sensor_id;sensor_type;location;lat;lon;timestamp;pressure;altitude;pressure_sealevel;temperature;humidity
24154;BME280;12312;53.362;-1.518;2023-02-20T00:00:40;99716.03;;;8.31;100.00
24154;BME280;12312;53.362;-1.518;2023-02-20T00:03:06;99703.81;;;8.29;100.00
24154;BME280;12312;53.362;-1.518;2023-02-20T00:05:32;99698.00;;;8.22;100.00
24154;BME280;12312;53.362;-1.518;2023-02-20T00:07:58;99701.09;;;8.30;100.00
24154;BME280;12312;53.362;-1.518;2023-02-20T00:10:23;99706.66;;;8.41;100.00
24154;BME280;12312;53.362;-1.518;2023-02-20T00:12:49;99696.25;;;8.21;100.00
24154;BME280;12312;53.362;-1.518;2023-02-20T00:15:16;99695.09;;;8.42;100.00
24154;BME280;12312;53.362;-1.518;2023-02-20T00:17:44;99695.88;;;8.44;100.00
24154;BME280;12312;53.362;-1.518;2023-02-20T00:20:19;99693.97;;;8.46;100.00
24154;BME280;12312;53.362;-1.518;2023-02-20T00:22:44;99679.44;;;8.38;100.00
24154;BME280;12312;53.362;-1.518;2023-02-20T00:25:10;99690.56;;;8.44;100.00
24154;BME280;12312;53.362;-1.518;2023-02-20T00:27:35;99688.16;;;8.55;100.00
24154;BME280;12312;53.362;-1.518;2023-02-20T00:30:01;99672.75;;;8.46;100.00
24154;BME280;12312;53.362;-1.518;2023-02-20T00:32:26;99661.41;;;8.44;100.00
24154;BME280;12312;53.362;-1.518;2023-02-20T00:34:52;99669.84;;;8.51;100.00
24154;BME280;12312;53.362;-1.518;2023-02-20T00:37:17;99677.72;;;8.52;100.00
24154;BME280;12312;53.362;-1.518;2023-02-20T00:39:43;99674.66;;;8.44;100.00
24154;BME280;12312;53.362;-1.518;2023-02-20T00:42:08;99662.94;;;8.48;100.00
24154;BME280;12312;53.362;-1.518;2023-02-20T00:44:34;99658.56;;;8.47;100.00
24154;BME280;12312;53.362;-1.518;2023-02-20T00:46:59;99671.91;;;8.30;100.00
24154;BME280;12312;53.362;-1.518;2023-02-20T00:49:25;99662.53;;;8.25;100.00
24154;BME280;12312;53.362;-1.518;2023-02-20T00:51:50;99652.06;;;8.22;100.00
24154;BME280;12312;53.362;-1.518;2023-02-20T00:54:16;99661.75;;;8.38;100.00
24154;BME280;12312;53.362;-1.518;2023-02-20T00:56:41;99666.78;;;8.27;100.00
24154;BME280;12312;53.362;-1.518;2023-02-20T00:59:07;99658.31;;;8.36;100.00
24154;BME280;12312;53.362;-1.518;2023-02-20T01:01:33;99649.84;;;8.45;100.00
24154;BME280;12312;53.362;-1.518;2023-02-20T01:03:58;99646.00;;;8.35;100.00
24154;BME280;12312;53.362;-1.518;2023-02-20T01:06:24;99650.44;;;8.35;100.00
24154;BME280;12312;53.362;-1.518;2023-02-20T01:08:50;99648.50;;;8.38;100.00
24154;BME280;12312;53.362;-1.518;2023-02-20T01:11:16;99649.50;;;8.36;100.00
24154;BME280;12312;53.362;-1.518;2023-02-20T01:13:41;99634.63;;;8.33;100.00
24154;BME280;12312;53.362;-1.518;2023-02-20T01:16:07;99634.09;;;8.42;100.00
24154;BME280;12312;53.362;-1.518;2023-02-20T01:18:33;99639.56;;;8.55;100.00
24154;BME280;12312;53.362;-1.518;2023-02-20T01:20:58;99624.44;;;8.41;100.00
24154;BME280;12312;53.362;-1.518;2023-02-20T01:26:26;99623.59;;;8.41;100.00
24154;BME280;12312;53.362;-1.518;2023-02-20T01:28:52;99617.31;;;8.57;100.00
24154;BME280;12312;53.362;-1.518;2023-02-20T01:31:17;99621.25;;;8.50;100.00
24154;BME280;12312;53.362;-1.518;2023-02-20T01:33:43;99607.31;;;8.47;100.00
24154;BME280;12312;53.362;-1.518;2023-02-20T01:36:09;99600.34;;;8.60;100.00
24154;BME280;12312;53.362;-1.518;2023-02-20T01:38:35;99603.78;;;8.46;100.00
24154;BME280;12312;53.362;-1.518;2023-02-20T01:41:00;99607.59;;;8.42;100.00
24154;BME280;12312;53.362;-1.518;2023-02-20T01:43:26;99593.16;;;8.62;100.00
24154;BME280;12312;53.362;-1.518;2023-02-20T01:45:51;99592.81;;;8.68;100.00
24154;BME280;12312;53.362;-1.518;2023-02-20T01:48:24;99571.56;;;8.68;100.00
24154;BME280;12312;53.362;-1.518;2023-02-20T01:50:58;99583.22;;;8.65;100.00
24154;BME280;12312;53.362;-1.518;2023-02-20T01:53:27;99594.41;;;8.70;100.00
24154;BME280;12312;53.362;-1.518;2023-02-20T01:55:58;99574.50;;;8.63;100.00
24154;BME280;12312;53.362;-1.518;2023-02-20T01:58:35;99588.78;;;8.76;100.00
24154;BME280;12312;53.362;-1.518;2023-02-20T02:01:02;99584.50;;;8.58;100.00
24154;BME280;12312;53.362;-1.518;2023-02-20T02:03:33;99594.22;;;8.59;100.00
24154;BME280;12312;53.362;-1.518;2023-02-20T02:06:04;99579.38;;;8.55;100.00
24154;BME280;12312;53.362;-1.518;2023-02-20T02:08:34;99578.47;;;8.56;100.00
24154;BME280;12312;53.362;-1.518;2023-02-20T02:11:03;99563.97;;;8.62;100.00
24154;BME280;12312;53.362;-1.518;2023-02-20T02:13:31;99584.69;;;8.55;100.00
24154;BME280;12312;53.362;-1.518;2023-02-20T02:43:15;99506.94;;;8.55;100.00
24154;BME280;12312;53.362;-1.518;2023-02-20T02:50:47;99512.25;;;8.55;100.00
24154;BME280;12312;53.362;-1.518;2023-02-20T02:53:14;99506.25;;;8.51;100.00
24154;BME280;12312;53.362;-1.518;2023-02-20T02:55:40;99512.53;;;8.50;100.00
24154;BME280;12312;53.362;-1.518;2023-02-20T02:58:05;99487.81;;;8.64;100.00
24154;BME280;12312;53.362;-1.518;2023-02-20T03:00:37;99499.25;;;8.50;100.00
24154;BME280;12312;53.362;-1.518;2023-02-20T03:05:46;99495.25;;;8.43;100.00
24154;BME280;12312;53.362;-1.518;2023-02-20T03:09:10;99481.25;;;8.55;100.00
24154;BME280;12312;53.362;-1.518;2023-02-20T03:11:35;99498.66;;;8.45;100.00
24154;BME280;12312;53.362;-1.518;2023-02-20T03:14:06;99492.78;;;8.40;100.00
24154;BME280;12312;53.362;-1.518;2023-02-20T03:16:58;99488.34;;;8.41;100.00
24154;BME280;12312;53.362;-1.518;2023-02-20T03:19:34;99495.59;;;8.37;100.00
24154;BME280;12312;53.362;-1.518;2023-02-20T03:22:01;99497.72;;;8.46;100.00
24154;BME280;12312;53.362;-1.518;2023-02-20T03:24:32;99490.91;;;8.42;100.00
24154;BME280;12312;53.362;-1.518;2023-02-20T03:27:18;99497.44;;;8.37;100.00
24154;BME280;12312;53.362;-1.518;2023-02-20T03:29:45;99481.97;;;8.43;100.00
24154;BME280;12312;53.362;-1.518;2023-02-20T03:32:13;99484.09;;;8.52;100.00
24154;BME280;12312;53.362;-1.518;2023-02-20T03:35:00;99477.50;;;8.59;100.00
24154;BME280;12312;53.362;-1.518;2023-02-20T03:37:46;99476.31;;;8.49;100.00
24154;BME280;12312;53.362;-1.518;2023-02-20T03:40:31;99476.22;;;8.37;100.00
24154;BME280;12312;53.362;-1.518;2023-02-20T03:43:19;99450.34;;;8.40;100.00
24154;BME280;12312;53.362;-1.518;2023-02-20T03:46:00;99461.25;;;8.50;100.00
24154;BME280;12312;53.362;-1.518;2023-02-20T03:48:33;99458.22;;;8.42;100.00
24154;BME280;12312;53.362;-1.518;2023-02-20T03:51:02;99446.03;;;8.53;100.00
24154;BME280;12312;53.362;-1.518;2023-02-20T03:53:37;99439.00;;;8.52;100.00
24154;BME280;12312;53.362;-1.518;2023-02-20T03:56:08;99424.97;;;8.64;100.00
24154;BME280;12312;53.362;-1.518;2023-02-20T03:58:37;99411.25;;;8.58;100.00
24154;BME280;12312;53.362;-1.518;2023-02-20T04:01:07;99419.69;;;8.64;100.00
24154;BME280;12312;53.362;-1.518;2023-02-20T04:03:37;99418.56;;;8.68;100.00
24154;BME280;12312;53.362;-1.518;2023-02-20T04:06:05;99397.72;;;8.62;100.00
24154;BME280;12312;53.362;-1.518;2023-02-20T04:08:43;99402.66;;;8.68;100.00
24154;BME280;12312;53.362;-1.518;2023-02-20T04:13:46;99410.41;;;8.57;100.00
24154;BME280;12312;53.362;-1.518;2023-02-20T04:16:12;99413.25;;;8.68;100.00
24154;BME280;12312;53.362;-1.518;2023-02-20T04:18:38;99401.09;;;8.64;100.00
24154;BME280;12312;53.362;-1.518;2023-02-20T04:21:09;99403.03;;;8.62;100.00
24154;BME280;12312;53.362;-1.518;2023-02-20T04:23:40;99397.34;;;8.68;100.00
24154;BME280;12312;53.362;-1.518;2023-02-20T04:26:11;99398.56;;;8.63;100.00
24154;BME280;12312;53.362;-1.518;2023-02-20T04:28:37;99378.56;;;8.57;100.00
24154;BME280;12312;53.362;-1.518;2023-02-20T04:31:03;99379.69;;;8.67;100.00
24154;BME280;12312;53.362;-1.518;2023-02-20T04:33:28;99360.19;;;8.68;100.00
24154;BME280;12312;53.362;-1.518;2023-02-20T04:35:54;99377.22;;;8.64;100.00
24154;BME280;12312;53.362;-1.518;2023-02-20T04:38:22;99375.94;;;8.71;100.00
24154;BME280;12312;53.362;-1.518;2023-02-20T04:40:48;99378.38;;;8.60;100.00
24154;BME280;12312;53.362;-1.518;2023-02-20T04:43:15;99382.53;;;8.64;100.00
24154;BME280;12312;53.362;-1.518;2023-02-20T04:45:40;99377.44;;;8.75;100.00
24154;BME280;12312;53.362;-1.518;2023-02-20T04:48:06;99384.66;;;8.73;100.00
24154;BME280;12312;53.362;-1.518;2023-02-20T04:50:32;99388.22;;;8.72;100.00
24154;BME280;12312;53.362;-1.518;2023-02-20T04:52:59;99416.09;;;8.65;100.00
24154;BME280;12312;53.362;-1.518;2023-02-20T04:55:25;99396.66;;;8.65;100.00
24154;BME280;12312;53.362;-1.518;2023-02-20T04:57:51;99402.25;;;8.74;100.00
24154;BME280;12312;53.362;-1.518;2023-02-20T05:00:23;99392.97;;;8.67;100.00
24154;BME280;12312;53.362;-1.518;2023-02-20T05:02:49;99409.75;;;8.68;100.00
24154;BME280;12312;53.362;-1.518;2023-02-20T05:05:26;99419.69;;;8.64;100.00
24154;BME280;12312;53.362;-1.518;2023-02-20T05:07:57;99431.94;;;8.67;100.00
24154;BME280;12312;53.362;-1.518;2023-02-20T05:10:24;99406.59;;;8.61;100.00
24154;BME280;12312;53.362;-1.518;2023-02-20T05:12:50;99422.91;;;8.69;100.00
24154;BME280;12312;53.362;-1.518;2023-02-20T05:15:17;99418.94;;;8.62;100.00
24154;BME280;12312;53.362;-1.518;2023-02-20T05:17:43;99402.66;;;8.68;100.00
24154;BME280;12312;53.362;-1.518;2023-02-20T05:20:09;99406.81;;;8.72;100.00
24154;BME280;12312;53.362;-1.518;2023-02-20T05:22:34;99403.66;;;8.66;100.00
24154;BME280;12312;53.362;-1.518;2023-02-20T05:25:00;99435.50;;;8.66;100.00
24154;BME280;12312;53.362;-1.518;2023-02-20T05:27:26;99408.13;;;8.65;100.00
24154;BME280;12312;53.362;-1.518;2023-02-20T05:29:54;99400.91;;;8.67;100.00
24154;BME280;12312;53.362;-1.518;2023-02-20T05:32:21;99441.97;;;8.76;100.00
24154;BME280;12312;53.362;-1.518;2023-02-20T05:34:47;99454.34;;;8.61;100.00
24154;BME280;12312;53.362;-1.518;2023-02-20T05:37:14;99453.63;;;8.73;100.00
24154;BME280;12312;53.362;-1.518;2023-02-20T05:39:41;99446.59;;;8.72;100.00
24154;BME280;12312;53.362;-1.518;2023-02-20T05:42:07;99447.94;;;8.65;100.00
24154;BME280;12312;53.362;-1.518;2023-02-20T05:44:33;99450.78;;;8.76;100.00
24154;BME280;12312;53.362;-1.518;2023-02-20T05:46:59;99463.09;;;8.77;100.00
24154;BME280;12312;53.362;-1.518;2023-02-20T05:49:25;99463.88;;;8.79;100.00
24154;BME280;12312;53.362;-1.518;2023-02-20T05:51:51;99454.38;;;8.75;100.00
24154;BME280;12312;53.362;-1.518;2023-02-20T05:54:18;99449.66;;;8.80;100.00
24154;BME280;12312;53.362;-1.518;2023-02-20T05:56:45;99428.22;;;8.69;100.00
24154;BME280;12312;53.362;-1.518;2023-02-20T05:59:12;99436.19;;;8.69;100.00
24154;BME280;12312;53.362;-1.518;2023-02-20T06:01:38;99445.19;;;8.81;100.00
24154;BME280;12312;53.362;-1.518;2023-02-20T06:04:04;99438.47;;;8.89;100.00
24154;BME280;12312;53.362;-1.518;2023-02-20T06:06:40;99421.97;;;8.98;100.00
24154;BME280;12312;53.362;-1.518;2023-02-20T06:09:07;99433.53;;;8.97;100.00
24154;BME280;12312;53.362;-1.518;2023-02-20T06:11:35;99446.63;;;9.00;100.00
24154;BME280;12312;53.362;-1.518;2023-02-20T06:14:00;99459.97;;;8.99;100.00
24154;BME280;12312;53.362;-1.518;2023-02-20T06:16:27;99462.53;;;9.00;100.00
24154;BME280;12312;53.362;-1.518;2023-02-20T06:18:53;99435.22;;;8.98;100.00
24154;BME280;12312;53.362;-1.518;2023-02-20T06:21:20;99446.63;;;9.00;100.00
24154;BME280;12312;53.362;-1.518;2023-02-20T06:23:48;99447.94;;;8.93;100.00
24154;BME280;12312;53.362;-1.518;2023-02-20T06:26:14;99451.63;;;8.91;100.00
24154;BME280;12312;53.362;-1.518;2023-02-20T06:28:41;99468.41;;;8.91;100.00
24154;BME280;12312;53.362;-1.518;2023-02-20T06:31:07;99453.63;;;9.01;100.00
24154;BME280;12312;53.362;-1.518;2023-02-20T06:33:33;99456.47;;;8.98;100.00
24154;BME280;12312;53.362;-1.518;2023-02-20T06:35:58;99460.34;;;9.07;100.00
24154;BME280;12312;53.362;-1.518;2023-02-20T06:38:24;99457.59;;;9.08;100.00
24154;BME280;12312;53.362;-1.518;2023-02-20T06:40:50;99451.72;;;9.03;100.00
24154;BME280;12312;53.362;-1.518;2023-02-20T06:43:16;99453.22;;;9.07;100.00
24154;BME280;12312;53.362;-1.518;2023-02-20T06:45:42;99462.53;;;9.00;100.00
24154;BME280;12312;53.362;-1.518;2023-02-20T06:48:08;99470.75;;;9.10;100.00
24154;BME280;12312;53.362;-1.518;2023-02-20T06:50:34;99481.56;;;9.07;100.00
24154;BME280;12312;53.362;-1.518;2023-02-20T06:52:59;99466.59;;;9.06;100.00
24154;BME280;12312;53.362;-1.518;2023-02-20T06:55:25;99465.66;;;9.07;100.00
24154;BME280;12312;53.362;-1.518;2023-02-20T06:57:51;99454.00;;;8.95;100.00
24154;BME280;12312;53.362;-1.518;2023-02-20T07:00:17;99463.94;;;8.92;100.00
24154;BME280;12312;53.362;-1.518;2023-02-20T07:02:43;99471.63;;;8.96;100.00
24154;BME280;12312;53.362;-1.518;2023-02-20T07:05:10;99471.16;;;8.90;100.00
24154;BME280;12312;53.362;-1.518;2023-02-20T07:07:37;99472.97;;;8.89;100.00
24154;BME280;12312;53.362;-1.518;2023-02-20T07:10:03;99474.47;;;8.93;100.00
24154;BME280;12312;53.362;-1.518;2023-02-20T07:12:31;99467.66;;;8.89;100.00
24154;BME280;12312;53.362;-1.518;2023-02-20T07:14:57;99477.97;;;8.94;100.00
24154;BME280;12312;53.362;-1.518;2023-02-20T07:17:23;99466.31;;;8.96;100.00
24154;BME280;12312;53.362;-1.518;2023-02-20T07:19:48;99483.28;;;8.94;100.00
24154;BME280;12312;53.362;-1.518;2023-02-20T07:22:14;99475.63;;;9.03;100.00
24154;BME280;12312;53.362;-1.518;2023-02-20T07:24:39;99480.34;;;8.98;100.00
24154;BME280;12312;53.362;-1.518;2023-02-20T07:27:06;99473.06;;;9.02;100.00
24154;BME280;12312;53.362;-1.518;2023-02-20T07:29:32;99487.75;;;8.93;100.00
24154;BME280;12312;53.362;-1.518;2023-02-20T07:31:57;99477.97;;;8.94;100.00
24154;BME280;12312;53.362;-1.518;2023-02-20T07:34:23;99468.63;;;8.88;100.00
24154;BME280;12312;53.362;-1.518;2023-02-20T07:36:48;99480.94;;;8.89;100.00
24154;BME280;12312;53.362;-1.518;2023-02-20T07:39:14;99467.94;;;8.99;100.00
24154;BME280;12312;53.362;-1.518;2023-02-20T07:41:40;99476.56;;;9.02;100.00
24154;BME280;12312;53.362;-1.518;2023-02-20T07:44:06;99489.72;;;9.04;100.00
24154;BME280;12312;53.362;-1.518;2023-02-20T07:46:32;99462.72;;;8.97;100.00
24154;BME280;12312;53.362;-1.518;2023-02-20T07:49:02;99486.13;;;8.91;100.00
24154;BME280;12312;53.362;-1.518;2023-02-20T07:51:28;99478.09;;;9.07;100.00
24154;BME280;12312;53.362;-1.518;2023-02-20T07:53:54;99496.09;;;9.01;100.00
24154;BME280;12312;53.362;-1.518;2023-02-20T07:56:20;99493.03;;;8.93;100.00
24154;BME280;12312;53.362;-1.518;2023-02-20T07:58:47;99495.41;;;8.98;100.00
24154;BME280;12312;53.362;-1.518;2023-02-20T08:01:12;99483.59;;;9.03;100.00
24154;BME280;12312;53.362;-1.518;2023-02-20T08:03:38;99497.41;;;9.08;100.00
24154;BME280;12312;53.362;-1.518;2023-02-20T08:06:04;99498.94;;;9.13;100.00
24154;BME280;12312;53.362;-1.518;2023-02-20T08:08:29;99497.78;;;9.02;100.00
24154;BME280;12312;53.362;-1.518;2023-02-20T08:10:55;99501.78;;;8.95;100.00
24154;BME280;12312;53.362;-1.518;2023-02-20T08:13:21;99503.78;;;9.06;100.00
24154;BME280;12312;53.362;-1.518;2023-02-20T08:15:47;99505.75;;;9.02;100.00
24154;BME280;12312;53.362;-1.518;2023-02-20T08:18:15;99513.06;;;9.13;100.00
24154;BME280;12312;53.362;-1.518;2023-02-20T08:20:41;99518.28;;;9.00;100.00
24154;BME280;12312;53.362;-1.518;2023-02-20T08:23:21;99496.84;;;9.03;100.00
24154;BME280;12312;53.362;-1.518;2023-02-20T08:25:47;99505.56;;;9.05;100.00
24154;BME280;12312;53.362;-1.518;2023-02-20T08:28:13;99513.53;;;9.05;100.00
24154;BME280;12312;53.362;-1.518;2023-02-20T08:30:38;99519.78;;;9.04;100.00
24154;BME280;12312;53.362;-1.518;2023-02-20T08:33:04;99508.69;;;9.12;100.00
24154;BME280;12312;53.362;-1.518;2023-02-20T08:35:31;99528.25;;;9.11;100.00
24154;BME280;12312;53.362;-1.518;2023-02-20T08:38:34;99534.69;;;9.21;100.00
24154;BME280;12312;53.362;-1.518;2023-02-20T08:41:05;99527.66;;;9.06;100.00
24154;BME280;12312;53.362;-1.518;2023-02-20T08:43:33;99535.34;;;9.11;100.00
24154;BME280;12312;53.362;-1.518;2023-02-20T08:45:59;99518.84;;;9.05;100.00
24154;BME280;12312;53.362;-1.518;2023-02-20T08:48:24;99530.81;;;9.13;100.00
24154;BME280;12312;53.362;-1.518;2023-02-20T08:50:50;99547.28;;;9.18;100.00
24154;BME280;12312;53.362;-1.518;2023-02-20T08:53:16;99544.09;;;9.27;100.00
24154;BME280;12312;53.362;-1.518;2023-02-20T08:55:42;99550.13;;;9.15;100.00
24154;BME280;12312;53.362;-1.518;2023-02-20T08:58:08;99552.78;;;9.29;100.00
24154;BME280;12312;53.362;-1.518;2023-02-20T09:00:33;99545.97;;;9.11;100.00
24154;BME280;12312;53.362;-1.518;2023-02-20T09:02:59;99549.28;;;9.14;100.00
24154;BME280;12312;53.362;-1.518;2023-02-20T09:05:25;99551.56;;;9.06;100.00
24154;BME280;12312;53.362;-1.518;2023-02-20T09:07:51;99556.88;;;9.20;100.00
24154;BME280;12312;53.362;-1.518;2023-02-20T09:10:20;99545.41;;;9.20;100.00
24154;BME280;12312;53.362;-1.518;2023-02-20T09:12:46;99541.78;;;9.21;100.00
24154;BME280;12312;53.362;-1.518;2023-02-20T09:15:12;99546.91;;;9.10;100.00
24154;BME280;12312;53.362;-1.518;2023-02-20T09:17:43;99550.69;;;9.05;100.00
24154;BME280;12312;53.362;-1.518;2023-02-20T09:20:09;99554.69;;;8.98;100.00
24154;BME280;12312;53.362;-1.518;2023-02-20T09:22:35;99557.34;;;9.13;100.00
24154;BME280;12312;53.362;-1.518;2023-02-20T09:25:01;99555.81;;;9.08;100.00
24154;BME280;12312;53.362;-1.518;2023-02-20T09:27:29;99567.38;;;9.07;100.00
24154;BME280;12312;53.362;-1.518;2023-02-20T09:29:54;99544.28;;;9.10;100.00
24154;BME280;12312;53.362;-1.518;2023-02-20T09:32:20;99548.63;;;9.11;100.00
24154;BME280;12312;53.362;-1.518;2023-02-20T09:34:45;99553.94;;;9.11;100.00
24154;BME280;12312;53.362;-1.518;2023-02-20T09:37:11;99547.75;;;9.10;100.00
24154;BME280;12312;53.362;-1.518;2023-02-20T09:39:37;99529.34;;;9.07;100.00
24154;BME280;12312;53.362;-1.518;2023-02-20T09:44:58;99551.75;;;9.03;100.00
24154;BME280;12312;53.362;-1.518;2023-02-20T09:47:52;99566.63;;;9.05;100.00
24154;BME280;12312;53.362;-1.518;2023-02-20T09:50:32;99557.53;;;9.10;100.00
24154;BME280;12312;53.362;-1.518;2023-02-20T09:53:04;99564.16;;;9.17;100.00
24154;BME280;12312;53.362;-1.518;2023-02-20T09:55:34;99563.13;;;9.19;100.00
24154;BME280;12312;53.362;-1.518;2023-02-20T09:58:02;99575.38;;;9.22;100.00
24154;BME280;12312;53.362;-1.518;2023-02-20T10:00:34;99570.25;;;9.19;100.00
24154;BME280;12312;53.362;-1.518;2023-02-20T10:03:15;99561.13;;;9.08;100.00
24154;BME280;12312;53.362;-1.518;2023-02-20T10:05:44;99567.97;;;9.13;100.00
24154;BME280;12312;53.362;-1.518;2023-02-20T10:08:10;99562.56;;;9.14;100.00
24154;BME280;12312;53.362;-1.518;2023-02-20T10:10:40;99565.69;;;9.21;100.00
24154;BME280;12312;53.362;-1.518;2023-02-20T10:19:21;99579.25;;;9.16;100.00
24154;BME280;12312;53.362;-1.518;2023-02-20T10:27:38;99581.78;;;9.18;100.00
24154;BME280;12312;53.362;-1.518;2023-02-20T10:30:10;99591.41;;;9.20;100.00
24154;BME280;12312;53.362;-1.518;2023-02-20T10:32:42;99584.06;;;9.24;100.00
24154;BME280;12312;53.362;-1.518;2023-02-20T10:35:19;99584.25;;;9.21;100.00
24154;BME280;12312;53.362;-1.518;2023-02-20T10:37:49;99578.88;;;9.22;100.00
24154;BME280;12312;53.362;-1.518;2023-02-20T10:40:28;99587.13;;;9.32;100.00
24154;BME280;12312;53.362;-1.518;2023-02-20T10:43:08;99601.94;;;9.36;100.00
24154;BME280;12312;53.362;-1.518;2023-02-20T10:45:57;99595.47;;;9.26;100.00
24154;BME280;12312;53.362;-1.518;2023-02-20T10:48:29;99591.22;;;9.23;100.00
24154;BME280;12312;53.362;-1.518;2023-02-20T10:51:08;99571.56;;;9.26;100.00
24154;BME280;12312;53.362;-1.518;2023-02-20T10:53:43;99569.31;;;9.34;100.00
24154;BME280;12312;53.362;-1.518;2023-02-20T10:56:17;99574.34;;;9.38;100.00
24154;BME280;12312;53.362;-1.518;2023-02-20T10:59:48;99583.34;;;9.22;100.00
24154;BME280;12312;53.362;-1.518;2023-02-20T11:01:43;99576.97;;;9.24;100.00
24154;BME280;12312;53.362;-1.518;2023-02-20T11:04:13;99573.22;;;9.28;100.00
24154;BME280;12312;53.362;-1.518;2023-02-20T11:06:49;99587.41;;;9.27;100.00
24154;BME280;12312;53.362;-1.518;2023-02-20T11:09:18;99585.72;;;9.40;100.00
24154;BME280;12312;53.362;-1.518;2023-02-20T11:11:45;99575.56;;;9.33;100.00
24154;BME280;12312;53.362;-1.518;2023-02-20T11:14:19;99581.81;;;9.46;100.00
24154;BME280;12312;53.362;-1.518;2023-02-20T11:19:22;99566.63;;;9.62;100.00
24154;BME280;12312;53.362;-1.518;2023-02-20T11:21:50;99566.44;;;9.65;100.00
24154;BME280;12312;53.362;-1.518;2023-02-20T11:26:49;99564.34;;;9.70;100.00
24154;BME280;12312;53.362;-1.518;2023-02-20T11:29:19;99557.34;;;9.69;100.00
24154;BME280;12312;53.362;-1.518;2023-02-20T11:31:47;99563.38;;;9.71;100.00
24154;BME280;12312;53.362;-1.518;2023-02-20T11:34:23;99568.47;;;9.88;100.00
24154;BME280;12312;53.362;-1.518;2023-02-20T11:36:53;99573.59;;;9.91;100.00
24154;BME280;12312;53.362;-1.518;2023-02-20T11:39:24;99565.59;;;10.05;100.00
24154;BME280;12312;53.362;-1.518;2023-02-20T11:42:14;99558.50;;;9.91;100.00
24154;BME280;12312;53.362;-1.518;2023-02-20T11:44:40;99558.31;;;9.94;100.00
24154;BME280;12312;53.362;-1.518;2023-02-20T11:47:22;99573.00;;;10.00;100.00
24154;BME280;12312;53.362;-1.518;2023-02-20T11:49:49;99562.56;;;9.97;100.00
24154;BME280;12312;53.362;-1.518;2023-02-20T11:52:21;99567.69;;;10.14;100.00
24154;BME280;12312;53.362;-1.518;2023-02-20T11:55:08;99566.63;;;10.16;100.00
24154;BME280;12312;53.362;-1.518;2023-02-20T11:57:37;99552.81;;;10.24;100.00
24154;BME280;12312;53.362;-1.518;2023-02-20T12:02:34;99549.63;;;10.19;100.00
24154;BME280;12312;53.362;-1.518;2023-02-20T12:09:58;99547.13;;;10.30;100.00
24154;BME280;12312;53.362;-1.518;2023-02-20T12:12:27;99540.03;;;10.43;100.00
24154;BME280;12312;53.362;-1.518;2023-02-20T12:14:55;99541.06;;;10.28;100.00
24154;BME280;12312;53.362;-1.518;2023-02-20T12:20:08;99539.44;;;10.25;100.00
24154;BME280;12312;53.362;-1.518;2023-02-20T12:22:38;99526.38;;;10.35;100.00
24154;BME280;12312;53.362;-1.518;2023-02-20T12:34:05;99514.59;;;10.51;100.00
24154;BME280;12312;53.362;-1.518;2023-02-20T12:39:13;99506.69;;;10.89;100.00
24154;BME280;12312;53.362;-1.518;2023-02-20T12:41:48;99505.72;;;10.90;100.00
24154;BME280;12312;53.362;-1.518;2023-02-20T12:44:23;99516.03;;;10.82;100.00
24154;BME280;12312;53.362;-1.518;2023-02-20T12:49:48;99517.94;;;10.67;100.00
24154;BME280;12312;53.362;-1.518;2023-02-20T12:53:03;99501.34;;;10.76;100.00
24154;BME280;12312;53.362;-1.518;2023-02-20T12:58:44;99521.22;;;10.71;100.00
24154;BME280;12312;53.362;-1.518;2023-02-20T13:01:14;99514.56;;;10.78;100.00
24154;BME280;12312;53.362;-1.518;2023-02-20T13:09:23;99507.53;;;11.02;100.00
24154;BME280;12312;53.362;-1.518;2023-02-20T13:11:54;99518.81;;;10.80;100.00
24154;BME280;12312;53.362;-1.518;2023-02-20T13:14:36;99510.84;;;10.93;100.00
24154;BME280;12312;53.362;-1.518;2023-02-20T13:17:31;99508.06;;;10.95;100.00
24154;BME280;12312;53.362;-1.518;2023-02-20T13:22:35;99510.50;;;10.85;100.00
24154;BME280;12312;53.362;-1.518;2023-02-20T13:28:02;99513.16;;;10.85;100.00
24154;BME280;12312;53.362;-1.518;2023-02-20T13:30:31;99506.16;;;10.97;100.00
24154;BME280;12312;53.362;-1.518;2023-02-20T13:33:21;99515.31;;;10.80;100.00
24154;BME280;12312;53.362;-1.518;2023-02-20T13:35:49;99514.03;;;10.86;100.00
24154;BME280;12312;53.362;-1.518;2023-02-20T13:38:18;99508.81;;;10.84;100.00
24154;BME280;12312;53.362;-1.518;2023-02-20T13:43:35;99514.78;;;11.25;100.00
24154;BME280;12312;53.362;-1.518;2023-02-20T13:48:45;99514.53;;;11.03;100.00
24154;BME280;12312;53.362;-1.518;2023-02-20T13:53:46;99511.56;;;10.82;100.00
24154;BME280;12312;53.362;-1.518;2023-02-20T13:56:23;99512.53;;;10.94;100.00
24154;BME280;12312;53.362;-1.518;2023-02-20T13:58:49;99508.03;;;10.82;100.00
24154;BME280;12312;53.362;-1.518;2023-02-20T14:01:16;99513.69;;;10.77;100.00
24154;BME280;12312;53.362;-1.518;2023-02-20T14:03:42;99505.81;;;10.76;100.00
24154;BME280;12312;53.362;-1.518;2023-02-20T14:06:09;99518.16;;;10.77;100.00
24154;BME280;12312;53.362;-1.518;2023-02-20T14:08:37;99511.78;;;10.79;100.00
24154;BME280;12312;53.362;-1.518;2023-02-20T14:13:50;99506.03;;;10.86;100.00
24154;BME280;12312;53.362;-1.518;2023-02-20T14:16:31;99500.06;;;10.82;100.00
24154;BME280;12312;53.362;-1.518;2023-02-20T14:19:20;99506.38;;;10.94;100.00
24154;BME280;12312;53.362;-1.518;2023-02-20T14:21:46;99503.03;;;10.77;100.00
24154;BME280;12312;53.362;-1.518;2023-02-20T14:24:21;99496.44;;;10.70;100.00
24154;BME280;12312;53.362;-1.518;2023-02-20T14:26:47;99503.28;;;10.87;100.00
24154;BME280;12312;53.362;-1.518;2023-02-20T14:31:51;99510.72;;;10.82;100.00
24154;BME280;12312;53.362;-1.518;2023-02-20T14:40:09;99496.22;;;10.73;100.00
24154;BME280;12312;53.362;-1.518;2023-02-20T14:42:41;99495.72;;;10.81;100.00
24154;BME280;12312;53.362;-1.518;2023-02-20T14:45:14;99495.81;;;10.92;100.00
24154;BME280;12312;53.362;-1.518;2023-02-20T14:47:54;99484.97;;;10.95;100.00
24154;BME280;12312;53.362;-1.518;2023-02-20T14:50:28;99489.41;;;10.95;100.00
24154;BME280;12312;53.362;-1.518;2023-02-20T14:53:16;99493.88;;;10.94;100.00
24154;BME280;12312;53.362;-1.518;2023-02-20T14:55:43;99488.16;;;10.88;100.00
24154;BME280;12312;53.362;-1.518;2023-02-20T14:58:14;99496.44;;;10.70;100.00